sensor_id;sensor_type;location;lat;lon;timestamp;P1;durP1;ratioP1;P2;durP2;ratioP2
48911;SDS011;34722;52.108;5.044;2023-04-03T00:00:02;4.30;;;2.40;;
48911;SDS011;34722;52.108;5.044;2023-04-03T00:11:57;4.55;;;2.00;;
48911;SDS011;34722;52.108;5.044;2023-04-03T00:22:58;8.95;;;3.03;;
48911;SDS011;34722;52.108;5.044;2023-04-03T00:25:25;3.20;;;2.40;;
48911;SDS011;34722;52.108;5.044;2023-04-03T00:33:01;5.47;;;2.50;;
48911;SDS011;34722;52.108;5.044;2023-04-03T00:44:00;5.90;;;2.25;;
48911;SDS011;34722;52.108;5.044;2023-04-03T00:46:25;4.93;;;2.53;;
48911;SDS011;34722;52.108;5.044;2023-04-03T00:48:51;6.15;;;3.08;;
48911;SDS011;34722;52.108;5.044;2023-04-03T00:51:18;4.45;;;2.40;;
48911;SDS011;34722;52.108;5.044;2023-04-03T00:56:16;3.20;;;2.20;;
48911;SDS011;34722;52.108;5.044;2023-04-03T00:58:54;5.68;;;3.47;;
48911;SDS011;34722;52.108;5.044;2023-04-03T01:01:24;4.53;;;2.42;;
48911;SDS011;34722;52.108;5.044;2023-04-03T01:03:52;7.28;;;2.38;;
48911;SDS011;34722;52.108;5.044;2023-04-03T01:06:20;5.47;;;2.45;;
48911;SDS011;34722;52.108;5.044;2023-04-03T01:08:50;3.55;;;2.13;;
48911;SDS011;34722;52.108;5.044;2023-04-03T01:11:16;3.38;;;2.22;;
48911;SDS011;34722;52.108;5.044;2023-04-03T01:13:42;3.88;;;2.47;;
48911;SDS011;34722;52.108;5.044;2023-04-03T01:16:08;11.27;;;3.45;;
48911;SDS011;34722;52.108;5.044;2023-04-03T01:18:34;6.40;;;2.60;;
48911;SDS011;34722;52.108;5.044;2023-04-03T01:29:35;5.95;;;2.83;;
48911;SDS011;34722;52.108;5.044;2023-04-03T01:32:02;5.50;;;2.53;;
48911;SDS011;34722;52.108;5.044;2023-04-03T01:34:29;5.68;;;2.72;;
48911;SDS011;34722;52.108;5.044;2023-04-03T01:36:55;7.00;;;2.47;;
48911;SDS011;34722;52.108;5.044;2023-04-03T01:39:21;4.68;;;2.58;;
48911;SDS011;34722;52.108;5.044;2023-04-03T01:54:44;5.65;;;2.42;;
48911;SDS011;34722;52.108;5.044;2023-04-03T02:14:40;7.85;;;2.92;;
48911;SDS011;34722;52.108;5.044;2023-04-03T02:17:06;3.85;;;2.97;;
48911;SDS011;34722;52.108;5.044;2023-04-03T02:19:34;6.90;;;2.67;;
48911;SDS011;34722;52.108;5.044;2023-04-03T02:25:22;10.20;;;3.22;;
48911;SDS011;34722;52.108;5.044;2023-04-03T02:27:48;6.97;;;2.70;;
48911;SDS011;34722;52.108;5.044;2023-04-03T02:30:13;6.13;;;2.67;;
48911;SDS011;34722;52.108;5.044;2023-04-03T02:46:18;7.32;;;2.47;;
48911;SDS011;34722;52.108;5.044;2023-04-03T02:48:44;9.65;;;3.05;;
48911;SDS011;34722;52.108;5.044;2023-04-03T02:51:10;6.18;;;3.45;;
48911;SDS011;34722;52.108;5.044;2023-04-03T02:53:37;6.05;;;3.25;;
48911;SDS011;34722;52.108;5.044;2023-04-03T02:56:02;8.50;;;2.75;;
48911;SDS011;34722;52.108;5.044;2023-04-03T02:58:28;4.60;;;2.75;;
48911;SDS011;34722;52.108;5.044;2023-04-03T03:00:54;5.63;;;2.58;;
48911;SDS011;34722;52.108;5.044;2023-04-03T03:12:17;6.93;;;2.95;;
48911;SDS011;34722;52.108;5.044;2023-04-03T03:14:47;9.90;;;3.25;;
48911;SDS011;34722;52.108;5.044;2023-04-03T03:17:13;7.82;;;3.20;;
48911;SDS011;34722;52.108;5.044;2023-04-03T03:19:40;7.10;;;3.05;;
48911;SDS011;34722;52.108;5.044;2023-04-03T03:22:05;5.00;;;2.90;;
48911;SDS011;34722;52.108;5.044;2023-04-03T03:24:31;9.63;;;3.60;;
48911;SDS011;34722;52.108;5.044;2023-04-03T03:26:57;4.22;;;2.97;;
48911;SDS011;34722;52.108;5.044;2023-04-03T03:29:22;6.57;;;3.40;;
48911;SDS011;34722;52.108;5.044;2023-04-03T03:31:48;6.82;;;3.83;;
48911;SDS011;34722;52.108;5.044;2023-04-03T03:34:13;10.27;;;3.70;;
48911;SDS011;34722;52.108;5.044;2023-04-03T03:36:39;10.95;;;3.40;;
48911;SDS011;34722;52.108;5.044;2023-04-03T03:39:06;10.82;;;3.17;;
48911;SDS011;34722;52.108;5.044;2023-04-03T03:41:32;8.90;;;3.75;;
48911;SDS011;34722;52.108;5.044;2023-04-03T03:43:57;7.68;;;3.95;;
48911;SDS011;34722;52.108;5.044;2023-04-03T03:46:23;7.22;;;3.15;;
48911;SDS011;34722;52.108;5.044;2023-04-03T03:48:48;7.13;;;3.50;;
48911;SDS011;34722;52.108;5.044;2023-04-03T03:51:14;8.23;;;4.03;;
48911;SDS011;34722;52.108;5.044;2023-04-03T04:02:13;8.83;;;3.33;;
48911;SDS011;34722;52.108;5.044;2023-04-03T04:04:39;11.50;;;4.78;;
48911;SDS011;34722;52.108;5.044;2023-04-03T04:07:05;7.35;;;3.55;;
48911;SDS011;34722;52.108;5.044;2023-04-03T04:09:31;9.07;;;4.20;;
48911;SDS011;34722;52.108;5.044;2023-04-03T04:11:57;10.75;;;4.03;;
48911;SDS011;34722;52.108;5.044;2023-04-03T04:14:22;9.95;;;3.78;;
48911;SDS011;34722;52.108;5.044;2023-04-03T04:16:48;7.03;;;3.70;;
48911;SDS011;34722;52.108;5.044;2023-04-03T04:19:14;6.97;;;3.55;;
48911;SDS011;34722;52.108;5.044;2023-04-03T04:21:40;8.30;;;3.40;;
48911;SDS011;34722;52.108;5.044;2023-04-03T04:24:06;7.35;;;3.60;;
48911;SDS011;34722;52.108;5.044;2023-04-03T04:26:33;13.25;;;4.10;;
48911;SDS011;34722;52.108;5.044;2023-04-03T04:28:59;8.35;;;3.55;;
48911;SDS011;34722;52.108;5.044;2023-04-03T04:31:25;5.85;;;4.07;;
48911;SDS011;34722;52.108;5.044;2023-04-03T04:33:52;9.15;;;4.03;;
48911;SDS011;34722;52.108;5.044;2023-04-03T04:36:17;10.20;;;3.85;;
48911;SDS011;34722;52.108;5.044;2023-04-03T04:38:44;10.80;;;4.13;;
48911;SDS011;34722;52.108;5.044;2023-04-03T04:41:09;11.25;;;3.67;;
48911;SDS011;34722;52.108;5.044;2023-04-03T04:43:36;16.25;;;5.22;;
48911;SDS011;34722;52.108;5.044;2023-04-03T04:46:02;10.10;;;4.32;;
48911;SDS011;34722;52.108;5.044;2023-04-03T04:48:29;11.15;;;4.38;;
48911;SDS011;34722;52.108;5.044;2023-04-03T04:50:55;7.18;;;3.85;;
48911;SDS011;34722;52.108;5.044;2023-04-03T04:53:21;8.60;;;3.72;;
48911;SDS011;34722;52.108;5.044;2023-04-03T04:55:47;7.05;;;4.45;;
48911;SDS011;34722;52.108;5.044;2023-04-03T04:58:13;9.23;;;3.95;;
48911;SDS011;34722;52.108;5.044;2023-04-03T05:00:39;11.65;;;4.80;;
48911;SDS011;34722;52.108;5.044;2023-04-03T05:03:05;10.43;;;4.00;;
48911;SDS011;34722;52.108;5.044;2023-04-03T05:05:31;10.18;;;4.00;;
48911;SDS011;34722;52.108;5.044;2023-04-03T05:07:57;9.07;;;3.70;;
48911;SDS011;34722;52.108;5.044;2023-04-03T05:10:22;8.57;;;3.90;;
48911;SDS011;34722;52.108;5.044;2023-04-03T05:12:48;10.13;;;4.25;;
48911;SDS011;34722;52.108;5.044;2023-04-03T05:15:14;8.57;;;4.20;;
48911;SDS011;34722;52.108;5.044;2023-04-03T05:17:55;9.18;;;4.68;;
48911;SDS011;34722;52.108;5.044;2023-04-03T05:20:21;8.93;;;3.80;;
48911;SDS011;34722;52.108;5.044;2023-04-03T05:22:46;12.25;;;4.82;;
48911;SDS011;34722;52.108;5.044;2023-04-03T05:25:12;8.90;;;3.92;;
48911;SDS011;34722;52.108;5.044;2023-04-03T05:27:38;6.65;;;4.15;;
48911;SDS011;34722;52.108;5.044;2023-04-03T05:30:03;13.10;;;4.13;;
48911;SDS011;34722;52.108;5.044;2023-04-03T05:32:30;10.43;;;4.40;;
48911;SDS011;34722;52.108;5.044;2023-04-03T05:34:55;7.63;;;4.53;;
48911;SDS011;34722;52.108;5.044;2023-04-03T05:37:21;14.98;;;4.50;;
48911;SDS011;34722;52.108;5.044;2023-04-03T05:39:47;7.05;;;4.47;;
48911;SDS011;34722;52.108;5.044;2023-04-03T05:42:12;18.55;;;5.50;;
48911;SDS011;34722;52.108;5.044;2023-04-03T05:44:38;7.18;;;4.28;;
48911;SDS011;34722;52.108;5.044;2023-04-03T05:53:01;7.22;;;4.35;;
48911;SDS011;34722;52.108;5.044;2023-04-03T05:55:28;10.70;;;4.72;;
48911;SDS011;34722;52.108;5.044;2023-04-03T05:57:54;7.78;;;4.20;;
48911;SDS011;34722;52.108;5.044;2023-04-03T06:00:19;13.50;;;5.38;;
48911;SDS011;34722;52.108;5.044;2023-04-03T06:02:46;12.50;;;4.30;;
48911;SDS011;34722;52.108;5.044;2023-04-03T06:05:11;9.80;;;4.57;;
48911;SDS011;34722;52.108;5.044;2023-04-03T06:07:38;11.80;;;4.93;;
48911;SDS011;34722;52.108;5.044;2023-04-03T06:10:04;8.65;;;3.65;;
48911;SDS011;34722;52.108;5.044;2023-04-03T06:12:30;16.67;;;6.05;;
48911;SDS011;34722;52.108;5.044;2023-04-03T06:14:56;10.27;;;4.20;;
48911;SDS011;34722;52.108;5.044;2023-04-03T06:17:22;10.50;;;4.85;;
48911;SDS011;34722;52.108;5.044;2023-04-03T06:19:48;15.50;;;6.20;;
48911;SDS011;34722;52.108;5.044;2023-04-03T06:31:31;7.70;;;3.88;;
48911;SDS011;34722;52.108;5.044;2023-04-03T06:37:21;7.38;;;4.60;;
48911;SDS011;34722;52.108;5.044;2023-04-03T06:39:48;8.50;;;4.82;;
48911;SDS011;34722;52.108;5.044;2023-04-03T06:42:14;10.05;;;4.13;;
48911;SDS011;34722;52.108;5.044;2023-04-03T06:44:40;8.45;;;5.15;;
48911;SDS011;34722;52.108;5.044;2023-04-03T06:47:05;6.93;;;4.47;;
48911;SDS011;34722;52.108;5.044;2023-04-03T06:49:31;7.53;;;4.30;;
48911;SDS011;34722;52.108;5.044;2023-04-03T06:51:57;12.00;;;4.55;;
48911;SDS011;34722;52.108;5.044;2023-04-03T06:54:23;8.13;;;3.72;;
48911;SDS011;34722;52.108;5.044;2023-04-03T06:56:49;8.60;;;4.28;;
48911;SDS011;34722;52.108;5.044;2023-04-03T06:59:16;7.05;;;4.05;;
48911;SDS011;34722;52.108;5.044;2023-04-03T07:01:42;9.20;;;4.38;;
48911;SDS011;34722;52.108;5.044;2023-04-03T07:04:08;10.30;;;4.53;;
48911;SDS011;34722;52.108;5.044;2023-04-03T07:06:33;7.00;;;4.03;;
48911;SDS011;34722;52.108;5.044;2023-04-03T07:11:35;5.38;;;4.38;;
48911;SDS011;34722;52.108;5.044;2023-04-03T07:14:01;5.72;;;4.20;;
48911;SDS011;34722;52.108;5.044;2023-04-03T07:16:28;8.40;;;4.03;;
48911;SDS011;34722;52.108;5.044;2023-04-03T07:19:05;9.55;;;4.82;;
48911;SDS011;34722;52.108;5.044;2023-04-03T07:24:52;5.40;;;4.18;;
48911;SDS011;34722;52.108;5.044;2023-04-03T07:27:18;7.68;;;3.90;;
48911;SDS011;34722;52.108;5.044;2023-04-03T07:29:44;7.10;;;4.32;;
48911;SDS011;34722;52.108;5.044;2023-04-03T07:32:10;8.10;;;3.90;;
48911;SDS011;34722;52.108;5.044;2023-04-03T07:34:36;10.02;;;4.40;;
48911;SDS011;34722;52.108;5.044;2023-04-03T07:37:02;6.25;;;4.15;;
48911;SDS011;34722;52.108;5.044;2023-04-03T07:39:28;5.72;;;4.03;;
48911;SDS011;34722;52.108;5.044;2023-04-03T07:41:54;7.35;;;4.07;;
48911;SDS011;34722;52.108;5.044;2023-04-03T07:44:23;5.70;;;4.35;;
48911;SDS011;34722;52.108;5.044;2023-04-03T07:46:52;8.27;;;4.32;;
48911;SDS011;34722;52.108;5.044;2023-04-03T07:49:17;5.50;;;3.85;;
48911;SDS011;34722;52.108;5.044;2023-04-03T07:51:44;9.20;;;4.00;;
48911;SDS011;34722;52.108;5.044;2023-04-03T07:54:09;6.57;;;4.60;;
48911;SDS011;34722;52.108;5.044;2023-04-03T07:56:35;6.68;;;3.97;;
48911;SDS011;34722;52.108;5.044;2023-04-03T07:59:01;6.85;;;3.80;;
48911;SDS011;34722;52.108;5.044;2023-04-03T08:01:27;7.57;;;4.13;;
48911;SDS011;34722;52.108;5.044;2023-04-03T08:06:51;5.20;;;3.95;;
48911;SDS011;34722;52.108;5.044;2023-04-03T08:09:17;8.18;;;4.32;;
48911;SDS011;34722;52.108;5.044;2023-04-03T08:11:43;9.95;;;3.90;;
48911;SDS011;34722;52.108;5.044;2023-04-03T08:14:10;7.85;;;4.05;;
48911;SDS011;34722;52.108;5.044;2023-04-03T08:16:40;5.90;;;3.90;;
48911;SDS011;34722;52.108;5.044;2023-04-03T08:19:07;4.95;;;4.20;;
48911;SDS011;34722;52.108;5.044;2023-04-03T08:24:57;4.50;;;3.83;;
48911;SDS011;34722;52.108;5.044;2023-04-03T08:28:03;5.15;;;3.85;;
48911;SDS011;34722;52.108;5.044;2023-04-03T08:30:29;5.45;;;3.60;;
48911;SDS011;34722;52.108;5.044;2023-04-03T08:35:48;4.00;;;3.45;;
48911;SDS011;34722;52.108;5.044;2023-04-03T08:52:52;5.97;;;3.60;;
48911;SDS011;34722;52.108;5.044;2023-04-03T08:58:06;5.28;;;3.67;;
48911;SDS011;34722;52.108;5.044;2023-04-03T09:01:00;6.05;;;3.72;;
48911;SDS011;34722;52.108;5.044;2023-04-03T09:12:27;4.72;;;3.15;;
48911;SDS011;34722;52.108;5.044;2023-04-03T09:15:38;3.88;;;3.03;;
48911;SDS011;34722;52.108;5.044;2023-04-03T09:17:59;4.10;;;3.10;;
48911;SDS011;34722;52.108;5.044;2023-04-03T09:20:35;2.80;;;2.60;;
48911;SDS011;34722;52.108;5.044;2023-04-03T09:23:15;3.35;;;3.05;;
48911;SDS011;34722;52.108;5.044;2023-04-03T09:25:45;4.88;;;2.80;;
48911;SDS011;34722;52.108;5.044;2023-04-03T09:28:11;3.30;;;3.08;;
48911;SDS011;34722;52.108;5.044;2023-04-03T09:30:37;4.63;;;2.83;;
48911;SDS011;34722;52.108;5.044;2023-04-03T09:33:03;2.90;;;2.75;;
48911;SDS011;34722;52.108;5.044;2023-04-03T09:35:31;2.95;;;2.58;;
48911;SDS011;34722;52.108;5.044;2023-04-03T09:48:50;3.42;;;2.70;;
48911;SDS011;34722;52.108;5.044;2023-04-03T09:51:23;3.50;;;2.60;;
48911;SDS011;34722;52.108;5.044;2023-04-03T09:57:12;5.13;;;2.83;;
48911;SDS011;34722;52.108;5.044;2023-04-03T09:59:46;3.97;;;2.38;;
48911;SDS011;34722;52.108;5.044;2023-04-03T10:02:28;2.83;;;2.60;;
48911;SDS011;34722;52.108;5.044;2023-04-03T10:04:58;4.85;;;2.85;;
48911;SDS011;34722;52.108;5.044;2023-04-03T10:07:29;2.60;;;2.40;;
48911;SDS011;34722;52.108;5.044;2023-04-03T10:10:16;3.67;;;2.35;;
48911;SDS011;34722;52.108;5.044;2023-04-03T10:12:48;3.00;;;2.65;;
48911;SDS011;34722;52.108;5.044;2023-04-03T10:19:05;4.68;;;2.40;;
48911;SDS011;34722;52.108;5.044;2023-04-03T10:21:55;3.72;;;2.55;;
48911;SDS011;34722;52.108;5.044;2023-04-03T10:24:30;2.60;;;2.35;;
48911;SDS011;34722;52.108;5.044;2023-04-03T10:38:29;2.90;;;2.60;;
48911;SDS011;34722;52.108;5.044;2023-04-03T10:56:11;3.35;;;2.78;;
48911;SDS011;34722;52.108;5.044;2023-04-03T11:02:23;3.55;;;2.38;;
48911;SDS011;34722;52.108;5.044;2023-04-03T11:04:58;2.50;;;2.40;;
48911;SDS011;34722;52.108;5.044;2023-04-03T11:21:26;2.20;;;2.00;;
48911;SDS011;34722;52.108;5.044;2023-04-03T11:24:00;2.45;;;2.28;;
48911;SDS011;34722;52.108;5.044;2023-04-03T11:26:31;2.20;;;2.10;;
48911;SDS011;34722;52.108;5.044;2023-04-03T11:29:07;2.20;;;2.00;;
48911;SDS011;34722;52.108;5.044;2023-04-03T11:36:50;2.90;;;2.70;;
48911;SDS011;34722;52.108;5.044;2023-04-03T11:39:24;2.95;;;2.72;;
48911;SDS011;34722;52.108;5.044;2023-04-03T11:41:52;2.80;;;2.60;;
48911;SDS011;34722;52.108;5.044;2023-04-03T11:44:29;3.80;;;2.67;;
48911;SDS011;34722;52.108;5.044;2023-04-03T11:46:59;2.28;;;2.17;;
48911;SDS011;34722;52.108;5.044;2023-04-03T12:05:50;4.50;;;2.22;;
48911;SDS011;34722;52.108;5.044;2023-04-03T12:41:11;2.63;;;2.22;;
48911;SDS011;34722;52.108;5.044;2023-04-03T12:50:02;4.93;;;2.00;;
48911;SDS011;34722;52.108;5.044;2023-04-03T12:52:45;5.85;;;2.20;;
48911;SDS011;34722;52.108;5.044;2023-04-03T12:55:17;4.85;;;2.55;;
48911;SDS011;34722;52.108;5.044;2023-04-03T12:57:45;2.90;;;2.67;;
48911;SDS011;34722;52.108;5.044;2023-04-03T13:00:31;3.10;;;2.10;;
48911;SDS011;34722;52.108;5.044;2023-04-03T13:11:59;5.38;;;2.67;;
48911;SDS011;34722;52.108;5.044;2023-04-03T13:24:21;3.47;;;2.30;;
48911;SDS011;34722;52.108;5.044;2023-04-03T13:33:52;6.80;;;2.60;;
48911;SDS011;34722;52.108;5.044;2023-04-03T13:39:41;3.93;;;2.80;;
48911;SDS011;34722;52.108;5.044;2023-04-03T13:42:17;6.18;;;2.45;;
48911;SDS011;34722;52.108;5.044;2023-04-03T13:47:45;2.05;;;1.95;;
48911;SDS011;34722;52.108;5.044;2023-04-03T13:52:51;5.32;;;2.00;;
48911;SDS011;34722;52.108;5.044;2023-04-03T13:55:32;8.73;;;2.20;;
48911;SDS011;34722;52.108;5.044;2023-04-03T14:06:05;4.10;;;2.58;;
48911;SDS011;34722;52.108;5.044;2023-04-03T14:08:33;4.20;;;2.38;;
48911;SDS011;34722;52.108;5.044;2023-04-03T14:10:59;2.67;;;2.10;;
48911;SDS011;34722;52.108;5.044;2023-04-03T14:13:25;3.95;;;1.77;;
48911;SDS011;34722;52.108;5.044;2023-04-03T14:15:51;4.03;;;2.20;;
48911;SDS011;34722;52.108;5.044;2023-04-03T14:18:18;3.22;;;2.40;;
48911;SDS011;34722;52.108;5.044;2023-04-03T14:20:45;3.65;;;2.20;;
48911;SDS011;34722;52.108;5.044;2023-04-03T14:23:12;8.40;;;2.40;;
48911;SDS011;34722;52.108;5.044;2023-04-03T14:25:38;5.15;;;2.20;;
48911;SDS011;34722;52.108;5.044;2023-04-03T14:28:21;3.17;;;2.50;;
48911;SDS011;34722;52.108;5.044;2023-04-03T14:30:48;4.45;;;2.08;;
48911;SDS011;34722;52.108;5.044;2023-04-03T14:33:16;3.42;;;1.83;;
48911;SDS011;34722;52.108;5.044;2023-04-03T14:35:43;4.95;;;2.33;;
48911;SDS011;34722;52.108;5.044;2023-04-03T14:38:24;4.60;;;1.95;;
48911;SDS011;34722;52.108;5.044;2023-04-03T14:40:52;3.42;;;1.73;;
48911;SDS011;34722;52.108;5.044;2023-04-03T14:43:18;2.45;;;1.73;;
48911;SDS011;34722;52.108;5.044;2023-04-03T14:45:45;6.63;;;2.08;;
48911;SDS011;34722;52.108;5.044;2023-04-03T14:48:16;3.58;;;1.92;;
48911;SDS011;34722;52.108;5.044;2023-04-03T14:50:51;6.32;;;3.88;;
48911;SDS011;34722;52.108;5.044;2023-04-03T14:53:17;6.32;;;2.30;;
48911;SDS011;34722;52.108;5.044;2023-04-03T14:55:50;4.55;;;2.22;;
48911;SDS011;34722;52.108;5.044;2023-04-03T14:58:18;2.47;;;2.05;;
48911;SDS011;34722;52.108;5.044;2023-04-03T15:00:45;2.13;;;1.92;;
48911;SDS011;34722;52.108;5.044;2023-04-03T15:03:16;3.15;;;1.95;;
48911;SDS011;34722;52.108;5.044;2023-04-03T15:05:46;3.42;;;2.17;;
48911;SDS011;34722;52.108;5.044;2023-04-03T15:08:21;7.60;;;2.58;;
48911;SDS011;34722;52.108;5.044;2023-04-03T15:10:54;3.50;;;2.63;;
48911;SDS011;34722;52.108;5.044;2023-04-03T15:13:23;3.58;;;2.17;;
48911;SDS011;34722;52.108;5.044;2023-04-03T17:10:45;4.43;;;2.10;;
48911;SDS011;34722;52.108;5.044;2023-04-03T17:13:10;4.43;;;2.42;;
48911;SDS011;34722;52.108;5.044;2023-04-03T17:15:36;8.65;;;4.03;;
48911;SDS011;34722;52.108;5.044;2023-04-03T17:18:04;4.53;;;2.78;;
48911;SDS011;34722;52.108;5.044;2023-04-03T17:20:30;3.25;;;2.45;;
48911;SDS011;34722;52.108;5.044;2023-04-03T17:22:58;5.55;;;3.42;;
48911;SDS011;34722;52.108;5.044;2023-04-03T17:25:42;3.83;;;2.25;;
48911;SDS011;34722;52.108;5.044;2023-04-03T17:28:08;4.70;;;2.40;;
48911;SDS011;34722;52.108;5.044;2023-04-03T17:30:37;5.47;;;2.88;;
48911;SDS011;34722;52.108;5.044;2023-04-03T17:33:03;5.82;;;2.15;;
48911;SDS011;34722;52.108;5.044;2023-04-03T17:35:29;2.83;;;1.67;;
48911;SDS011;34722;52.108;5.044;2023-04-03T17:37:55;5.68;;;1.88;;
48911;SDS011;34722;52.108;5.044;2023-04-03T17:40:23;6.05;;;1.92;;
48911;SDS011;34722;52.108;5.044;2023-04-03T17:42:49;5.55;;;2.33;;
48911;SDS011;34722;52.108;5.044;2023-04-03T17:45:16;4.13;;;2.35;;
48911;SDS011;34722;52.108;5.044;2023-04-03T17:47:42;3.17;;;2.22;;
48911;SDS011;34722;52.108;5.044;2023-04-03T17:50:11;5.20;;;2.13;;
48911;SDS011;34722;52.108;5.044;2023-04-03T17:52:40;6.77;;;1.87;;
48911;SDS011;34722;52.108;5.044;2023-04-03T17:55:05;5.32;;;2.03;;
48911;SDS011;34722;52.108;5.044;2023-04-03T17:57:31;3.63;;;1.95;;
48911;SDS011;34722;52.108;5.044;2023-04-03T17:59:57;7.47;;;3.47;;
48911;SDS011;34722;52.108;5.044;2023-04-03T18:02:23;3.90;;;2.15;;
48911;SDS011;34722;52.108;5.044;2023-04-03T18:04:52;5.75;;;2.30;;
48911;SDS011;34722;52.108;5.044;2023-04-03T18:07:18;8.32;;;2.28;;
48911;SDS011;34722;52.108;5.044;2023-04-03T18:09:46;2.80;;;1.95;;
48911;SDS011;34722;52.108;5.044;2023-04-03T18:12:13;3.15;;;2.25;;
48911;SDS011;34722;52.108;5.044;2023-04-03T18:14:39;5.70;;;2.45;;
48911;SDS011;34722;52.108;5.044;2023-04-03T18:17:05;5.80;;;2.20;;
48911;SDS011;34722;52.108;5.044;2023-04-03T18:19:32;4.43;;;2.38;;
48911;SDS011;34722;52.108;5.044;2023-04-03T18:24:49;4.13;;;2.20;;
48911;SDS011;34722;52.108;5.044;2023-04-03T18:27:17;6.97;;;2.30;;
48911;SDS011;34722;52.108;5.044;2023-04-03T18:29:53;5.15;;;2.20;;
48911;SDS011;34722;52.108;5.044;2023-04-03T18:35:48;4.72;;;2.15;;
48911;SDS011;34722;52.108;5.044;2023-04-03T18:38:14;3.17;;;2.03;;
48911;SDS011;34722;52.108;5.044;2023-04-03T18:40:40;4.63;;;2.25;;
48911;SDS011;34722;52.108;5.044;2023-04-03T18:43:06;5.63;;;2.30;;
48911;SDS011;34722;52.108;5.044;2023-04-03T18:45:32;4.25;;;2.28;;
48911;SDS011;34722;52.108;5.044;2023-04-03T18:47:58;5.82;;;2.60;;
48911;SDS011;34722;52.108;5.044;2023-04-03T18:50:24;6.88;;;2.50;;
48911;SDS011;34722;52.108;5.044;2023-04-03T18:52:49;4.78;;;2.28;;
48911;SDS011;34722;52.108;5.044;2023-04-03T18:55:16;5.47;;;2.55;;
48911;SDS011;34722;52.108;5.044;2023-04-03T19:00:28;4.40;;;2.25;;
48911;SDS011;34722;52.108;5.044;2023-04-03T19:02:54;4.75;;;2.30;;
48911;SDS011;34722;52.108;5.044;2023-04-03T19:05:20;8.98;;;3.00;;
48911;SDS011;34722;52.108;5.044;2023-04-03T19:07:46;8.38;;;2.28;;
48911;SDS011;34722;52.108;5.044;2023-04-03T19:10:13;4.43;;;2.60;;
48911;SDS011;34722;52.108;5.044;2023-04-03T19:12:44;4.47;;;2.13;;
48911;SDS011;34722;52.108;5.044;2023-04-03T19:15:11;4.05;;;2.72;;
48911;SDS011;34722;52.108;5.044;2023-04-03T19:17:38;5.38;;;2.25;;
48911;SDS011;34722;52.108;5.044;2023-04-03T19:20:04;3.95;;;2.08;;
48911;SDS011;34722;52.108;5.044;2023-04-03T19:22:30;5.30;;;2.92;;
48911;SDS011;34722;52.108;5.044;2023-04-03T19:25:03;3.28;;;2.30;;
48911;SDS011;34722;52.108;5.044;2023-04-03T19:32:50;5.68;;;2.17;;
48911;SDS011;34722;52.108;5.044;2023-04-03T19:35:16;5.15;;;2.55;;
48911;SDS011;34722;52.108;5.044;2023-04-03T19:37:42;5.70;;;2.30;;
48911;SDS011;34722;52.108;5.044;2023-04-03T19:40:08;3.72;;;2.15;;
48911;SDS011;34722;52.108;5.044;2023-04-03T19:42:34;3.20;;;2.08;;
48911;SDS011;34722;52.108;5.044;2023-04-03T19:45:04;6.05;;;2.80;;
48911;SDS011;34722;52.108;5.044;2023-04-03T19:47:30;4.50;;;2.45;;
48911;SDS011;34722;52.108;5.044;2023-04-03T19:49:59;6.60;;;2.67;;
48911;SDS011;34722;52.108;5.044;2023-04-03T19:52:24;4.45;;;2.75;;
48911;SDS011;34722;52.108;5.044;2023-04-03T19:54:50;4.72;;;2.97;;
48911;SDS011;34722;52.108;5.044;2023-04-03T19:57:16;4.78;;;2.80;;
48911;SDS011;34722;52.108;5.044;2023-04-03T19:59:42;4.82;;;2.60;;
48911;SDS011;34722;52.108;5.044;2023-04-03T20:02:07;7.40;;;3.78;;
48911;SDS011;34722;52.108;5.044;2023-04-03T20:04:33;4.93;;;2.70;;
48911;SDS011;34722;52.108;5.044;2023-04-03T20:06:59;4.57;;;2.30;;
48911;SDS011;34722;52.108;5.044;2023-04-03T20:09:26;7.90;;;3.08;;
48911;SDS011;34722;52.108;5.044;2023-04-03T20:11:51;8.82;;;2.80;;
48911;SDS011;34722;52.108;5.044;2023-04-03T20:14:18;10.52;;;4.93;;
48911;SDS011;34722;52.108;5.044;2023-04-03T20:16:44;7.72;;;3.28;;
48911;SDS011;34722;52.108;5.044;2023-04-03T20:19:11;6.50;;;2.40;;
48911;SDS011;34722;52.108;5.044;2023-04-03T20:21:38;6.53;;;2.38;;
48911;SDS011;34722;52.108;5.044;2023-04-03T20:24:04;6.10;;;2.92;;
48911;SDS011;34722;52.108;5.044;2023-04-03T20:26:32;3.22;;;2.40;;
48911;SDS011;34722;52.108;5.044;2023-04-03T20:29:01;8.10;;;3.05;;
48911;SDS011;34722;52.108;5.044;2023-04-03T20:31:27;6.43;;;2.60;;
48911;SDS011;34722;52.108;5.044;2023-04-03T20:33:54;6.00;;;2.70;;
48911;SDS011;34722;52.108;5.044;2023-04-03T20:36:21;6.95;;;2.78;;
48911;SDS011;34722;52.108;5.044;2023-04-03T20:38:48;8.02;;;3.22;;
48911;SDS011;34722;52.108;5.044;2023-04-03T20:41:14;4.60;;;2.72;;
48911;SDS011;34722;52.108;5.044;2023-04-03T20:43:40;4.97;;;2.75;;
48911;SDS011;34722;52.108;5.044;2023-04-03T20:46:07;6.55;;;3.33;;
48911;SDS011;34722;52.108;5.044;2023-04-03T20:48:35;7.97;;;3.47;;
48911;SDS011;34722;52.108;5.044;2023-04-03T20:51:10;6.85;;;3.03;;
48911;SDS011;34722;52.108;5.044;2023-04-03T20:53:37;7.07;;;3.17;;
48911;SDS011;34722;52.108;5.044;2023-04-03T20:56:12;5.32;;;2.90;;
48911;SDS011;34722;52.108;5.044;2023-04-03T20:58:39;5.72;;;3.47;;
48911;SDS011;34722;52.108;5.044;2023-04-03T21:01:20;7.30;;;3.13;;
48911;SDS011;34722;52.108;5.044;2023-04-03T21:03:48;7.55;;;3.15;;
48911;SDS011;34722;52.108;5.044;2023-04-03T21:20:41;7.03;;;3.42;;
48911;SDS011;34722;52.108;5.044;2023-04-03T21:23:06;8.93;;;3.65;;
48911;SDS011;34722;52.108;5.044;2023-04-03T21:25:32;8.15;;;3.47;;
48911;SDS011;34722;52.108;5.044;2023-04-03T21:27:58;9.88;;;3.83;;
48911;SDS011;34722;52.108;5.044;2023-04-03T21:32:59;12.65;;;4.88;;
48911;SDS011;34722;52.108;5.044;2023-04-03T21:35:25;8.35;;;3.97;;
48911;SDS011;34722;52.108;5.044;2023-04-03T21:37:51;4.30;;;3.47;;
48911;SDS011;34722;52.108;5.044;2023-04-03T21:40:16;6.93;;;3.65;;
48911;SDS011;34722;52.108;5.044;2023-04-03T21:42:42;6.07;;;3.92;;
48911;SDS011;34722;52.108;5.044;2023-04-03T21:45:08;7.07;;;3.90;;
48911;SDS011;34722;52.108;5.044;2023-04-03T21:47:34;9.25;;;3.80;;
48911;SDS011;34722;52.108;5.044;2023-04-03T21:50:00;6.75;;;4.03;;
48911;SDS011;34722;52.108;5.044;2023-04-03T21:52:26;8.65;;;5.13;;
48911;SDS011;34722;52.108;5.044;2023-04-03T21:54:52;12.55;;;4.75;;
48911;SDS011;34722;52.108;5.044;2023-04-03T21:57:20;11.70;;;4.25;;
48911;SDS011;34722;52.108;5.044;2023-04-03T22:00:03;8.30;;;4.22;;
48911;SDS011;34722;52.108;5.044;2023-04-03T22:02:37;12.88;;;6.82;;
48911;SDS011;34722;52.108;5.044;2023-04-03T22:05:06;8.55;;;5.22;;
48911;SDS011;34722;52.108;5.044;2023-04-03T22:07:34;9.95;;;4.80;;
48911;SDS011;34722;52.108;5.044;2023-04-03T22:09:59;9.18;;;4.75;;
48911;SDS011;34722;52.108;5.044;2023-04-03T22:12:28;9.50;;;4.82;;
48911;SDS011;34722;52.108;5.044;2023-04-03T22:14:54;13.68;;;5.30;;
48911;SDS011;34722;52.108;5.044;2023-04-03T22:17:23;9.82;;;6.05;;
48911;SDS011;34722;52.108;5.044;2023-04-03T22:19:49;6.90;;;4.47;;
48911;SDS011;34722;52.108;5.044;2023-04-03T22:22:15;10.15;;;4.13;;
48911;SDS011;34722;52.108;5.044;2023-04-03T22:24:41;9.75;;;5.00;;
48911;SDS011;34722;52.108;5.044;2023-04-03T22:27:07;10.18;;;5.68;;
48911;SDS011;34722;52.108;5.044;2023-04-03T22:29:32;10.70;;;5.20;;
48911;SDS011;34722;52.108;5.044;2023-04-03T22:31:58;8.18;;;4.40;;
48911;SDS011;34722;52.108;5.044;2023-04-03T22:34:24;10.45;;;6.20;;
48911;SDS011;34722;52.108;5.044;2023-04-03T22:36:50;7.90;;;4.45;;
48911;SDS011;34722;52.108;5.044;2023-04-03T22:39:15;10.77;;;5.97;;
48911;SDS011;34722;52.108;5.044;2023-04-03T22:41:41;13.43;;;4.95;;
48911;SDS011;34722;52.108;5.044;2023-04-03T22:44:09;12.88;;;4.57;;
48911;SDS011;34722;52.108;5.044;2023-04-03T22:46:35;10.32;;;4.40;;
48911;SDS011;34722;52.108;5.044;2023-04-03T22:49:01;7.13;;;4.88;;